sensor_id;sensor_type;location;lat;lon;timestamp;pressure;altitude;pressure_sealevel;temperature;humidity
56334;BME280;42240;53.626;55.886;2023-02-21T00:00:12;77043.25;;;-145.10;100.00
56334;BME280;42240;53.626;55.886;2023-02-21T00:02:04;77007.66;;;-145.10;100.00
56334;BME280;42240;53.626;55.886;2023-02-21T00:03:55;76995.81;;;-145.10;100.00
56334;BME280;42240;53.626;55.886;2023-02-21T00:05:46;77003.72;;;-145.10;100.00
56334;BME280;42240;53.626;55.886;2023-02-21T00:07:38;76983.94;;;-145.10;100.00
56334;BME280;42240;53.626;55.886;2023-02-21T00:09:29;76987.88;;;-145.10;100.00
56334;BME280;42240;53.626;55.886;2023-02-21T00:11:21;76976.03;;;-145.10;100.00
56334;BME280;42240;53.626;55.886;2023-02-21T00:13:13;76960.22;;;-145.10;100.00
56334;BME280;42240;53.626;55.886;2023-02-21T00:15:08;76964.16;;;-145.10;100.00
56334;BME280;42240;53.626;55.886;2023-02-21T00:16:59;76970.09;;;-145.10;100.00
56334;BME280;42240;53.626;55.886;2023-02-21T00:18:51;76958.22;;;-145.10;100.00
56334;BME280;42240;53.626;55.886;2023-02-21T00:20:42;76948.34;;;-145.10;100.00
56334;BME280;42240;53.626;55.886;2023-02-21T00:22:34;76950.31;;;-145.10;100.00
56334;BME280;42240;53.626;55.886;2023-02-21T00:24:26;76938.44;;;-145.10;100.00
56334;BME280;42240;53.626;55.886;2023-02-21T00:26:18;76944.38;;;-145.10;100.00
56334;BME280;42240;53.626;55.886;2023-02-21T00:28:10;76948.34;;;-145.10;100.00
56334;BME280;42240;53.626;55.886;2023-02-21T00:30:02;76936.47;;;-145.10;100.00
56334;BME280;42240;53.626;55.886;2023-02-21T00:31:53;76932.53;;;-145.10;100.00
56334;BME280;42240;53.626;55.886;2023-02-21T00:33:45;76930.53;;;-145.10;100.00
56334;BME280;42240;53.626;55.886;2023-02-21T00:35:37;76928.56;;;-145.10;100.00
56334;BME280;42240;53.626;55.886;2023-02-21T00:37:29;76922.63;;;-145.10;100.00
56334;BME280;42240;53.626;55.886;2023-02-21T00:39:20;76914.72;;;-145.10;100.00
56334;BME280;42240;53.626;55.886;2023-02-21T00:41:12;76924.59;;;-145.10;100.00
56334;BME280;42240;53.626;55.886;2023-02-21T00:43:04;76910.75;;;-145.10;100.00
56334;BME280;42240;53.626;55.886;2023-02-21T00:44:55;76912.75;;;-145.10;100.00
56334;BME280;42240;53.626;55.886;2023-02-21T00:46:46;76960.22;;;-145.10;100.00
56334;BME280;42240;53.626;55.886;2023-02-21T00:48:38;76904.84;;;-145.10;100.00
56334;BME280;42240;53.626;55.886;2023-02-21T00:50:29;76906.81;;;-145.10;100.00
56334;BME280;42240;53.626;55.886;2023-02-21T00:52:21;76916.69;;;-145.10;100.00
56334;BME280;42240;53.626;55.886;2023-02-21T00:54:12;76902.84;;;-145.10;100.00
56334;BME280;42240;53.626;55.886;2023-02-21T00:56:04;76896.94;;;-145.10;100.00
56334;BME280;42240;53.626;55.886;2023-02-21T00:57:55;76889.00;;;-145.10;100.00
56334;BME280;42240;53.626;55.886;2023-02-21T00:59:46;76896.94;;;-145.10;100.00
56334;BME280;42240;53.626;55.886;2023-02-21T01:01:39;76892.97;;;-145.10;100.00
56334;BME280;42240;53.626;55.886;2023-02-21T01:03:31;76896.94;;;-145.10;100.00
56334;BME280;42240;53.626;55.886;2023-02-21T01:05:24;76889.00;;;-145.10;100.00
56334;BME280;42240;53.626;55.886;2023-02-21T01:07:15;76875.16;;;-145.10;100.00
56334;BME280;42240;53.626;55.886;2023-02-21T01:09:06;76877.16;;;-145.10;100.00
56334;BME280;42240;53.626;55.886;2023-02-21T01:10:57;76987.88;;;-145.10;100.00
56334;BME280;42240;53.626;55.886;2023-02-21T01:12:49;76867.25;;;-145.10;100.00
56334;BME280;42240;53.626;55.886;2023-02-21T01:14:40;76877.16;;;-145.10;100.00
56334;BME280;42240;53.626;55.886;2023-02-21T01:16:32;76881.09;;;-145.10;100.00
56334;BME280;42240;53.626;55.886;2023-02-21T01:18:27;76910.75;;;-145.10;100.00
56334;BME280;42240;53.626;55.886;2023-02-21T01:20:18;76861.34;;;-145.10;100.00
56334;BME280;42240;53.626;55.886;2023-02-21T01:22:09;76857.38;;;-145.10;100.00
56334;BME280;42240;53.626;55.886;2023-02-21T01:24:03;76863.31;;;-145.10;100.00
56334;BME280;42240;53.626;55.886;2023-02-21T01:25:54;76853.41;;;-145.10;100.00
56334;BME280;42240;53.626;55.886;2023-02-21T01:27:46;76841.56;;;-145.10;100.00
56334;BME280;42240;53.626;55.886;2023-02-21T01:29:37;76839.56;;;-145.10;100.00
56334;BME280;42240;53.626;55.886;2023-02-21T01:31:29;76829.69;;;-145.10;100.00
56334;BME280;42240;53.626;55.886;2023-02-21T01:33:21;76825.72;;;-145.10;100.00
56334;BME280;42240;53.626;55.886;2023-02-21T01:35:12;76821.78;;;-145.10;100.00
56334;BME280;42240;53.626;55.886;2023-02-21T01:37:04;76817.81;;;-145.10;100.00
56334;BME280;42240;53.626;55.886;2023-02-21T01:38:55;76823.75;;;-145.10;100.00
56334;BME280;42240;53.626;55.886;2023-02-21T01:40:47;76813.88;;;-145.10;100.00
56334;BME280;42240;53.626;55.886;2023-02-21T01:42:39;76802.00;;;-145.10;100.00
56334;BME280;42240;53.626;55.886;2023-02-21T01:44:40;76784.22;;;-145.10;100.00
56334;BME280;42240;53.626;55.886;2023-02-21T01:46:32;76782.22;;;-145.10;100.00
56334;BME280;42240;53.626;55.886;2023-02-21T01:48:23;76788.16;;;-145.10;100.00
56334;BME280;42240;53.626;55.886;2023-02-21T01:50:25;76782.22;;;-145.10;100.00
56334;BME280;42240;53.626;55.886;2023-02-21T01:52:18;76756.53;;;-145.10;100.00
56334;BME280;42240;53.626;55.886;2023-02-21T01:54:10;76768.38;;;-145.10;100.00
56334;BME280;42240;53.626;55.886;2023-02-21T01:56:02;76811.88;;;-145.10;100.00
56334;BME280;42240;53.626;55.886;2023-02-21T01:57:54;76748.59;;;-145.10;100.00
56334;BME280;42240;53.626;55.886;2023-02-21T01:59:47;76740.69;;;-145.10;100.00
56334;BME280;42240;53.626;55.886;2023-02-21T02:01:52;76732.78;;;-145.10;100.00
56334;BME280;42240;53.626;55.886;2023-02-21T02:03:44;76730.81;;;-145.10;100.00
56334;BME280;42240;53.626;55.886;2023-02-21T02:05:38;76718.94;;;-145.10;100.00
56334;BME280;42240;53.626;55.886;2023-02-21T02:07:31;76809.91;;;-145.10;100.00
56334;BME280;42240;53.626;55.886;2023-02-21T02:09:23;76715.00;;;-145.10;100.00
56334;BME280;42240;53.626;55.886;2023-02-21T02:30:14;76631.94;;;-145.10;100.00
56334;BME280;42240;53.626;55.886;2023-02-21T02:36:09;76612.16;;;-145.10;100.00
56334;BME280;42240;53.626;55.886;2023-02-21T02:38:11;76604.25;;;-145.10;100.00
56334;BME280;42240;53.626;55.886;2023-02-21T02:41:46;76618.09;;;-145.10;100.00
56334;BME280;42240;53.626;55.886;2023-02-21T02:46:47;76596.34;;;-145.10;100.00
56334;BME280;42240;53.626;55.886;2023-02-21T02:48:32;76651.72;;;-145.10;100.00
56334;BME280;42240;53.626;55.886;2023-02-21T02:52:11;76592.41;;;-145.10;100.00
56334;BME280;42240;53.626;55.886;2023-02-21T02:53:44;76592.41;;;-145.10;100.00
56334;BME280;42240;53.626;55.886;2023-02-21T02:55:43;76582.50;;;-145.10;100.00
56334;BME280;42240;53.626;55.886;2023-02-21T02:57:17;76584.47;;;-145.10;100.00
56334;BME280;42240;53.626;55.886;2023-02-21T03:00:28;76608.22;;;-145.10;100.00
56334;BME280;42240;53.626;55.886;2023-02-21T03:02:10;76560.75;;;-145.10;100.00
56334;BME280;42240;53.626;55.886;2023-02-21T03:09:30;76544.94;;;-145.10;100.00
56334;BME280;42240;53.626;55.886;2023-02-21T03:11:13;76535.06;;;-145.10;100.00
56334;BME280;42240;53.626;55.886;2023-02-21T03:18:17;76529.13;;;-145.10;100.00
56334;BME280;42240;53.626;55.886;2023-02-21T03:19:53;76503.41;;;-145.10;100.00
56334;BME280;42240;53.626;55.886;2023-02-21T03:21:37;76505.38;;;-145.10;100.00
56334;BME280;42240;53.626;55.886;2023-02-21T03:23:14;76515.28;;;-145.10;100.00
56334;BME280;42240;53.626;55.886;2023-02-21T03:24:50;76507.38;;;-145.10;100.00
56334;BME280;42240;53.626;55.886;2023-02-21T03:26:26;76509.34;;;-145.10;100.00
56334;BME280;42240;53.626;55.886;2023-02-21T03:28:08;76517.25;;;-145.10;100.00
56334;BME280;42240;53.626;55.886;2023-02-21T03:29:44;76529.13;;;-145.10;100.00
56334;BME280;42240;53.626;55.886;2023-02-21T03:31:22;76572.63;;;-145.10;100.00
56334;BME280;42240;53.626;55.886;2023-02-21T03:32:56;76537.03;;;-145.10;100.00
56334;BME280;42240;53.626;55.886;2023-02-21T03:34:29;76491.53;;;-145.10;100.00
56334;BME280;42240;53.626;55.886;2023-02-21T03:36:04;76493.53;;;-145.10;100.00
56334;BME280;42240;53.626;55.886;2023-02-21T03:37:42;76548.88;;;-145.10;100.00
56334;BME280;42240;53.626;55.886;2023-02-21T03:39:16;76487.59;;;-145.10;100.00
56334;BME280;42240;53.626;55.886;2023-02-21T03:40:50;76487.59;;;-145.10;100.00
56334;BME280;42240;53.626;55.886;2023-02-21T03:42:24;76483.63;;;-145.10;100.00
56334;BME280;42240;53.626;55.886;2023-02-21T03:43:58;76471.78;;;-145.10;100.00
56334;BME280;42240;53.626;55.886;2023-02-21T03:45:32;76457.94;;;-145.10;100.00
56334;BME280;42240;53.626;55.886;2023-02-21T03:47:13;76453.97;;;-145.10;100.00
56334;BME280;42240;53.626;55.886;2023-02-21T03:48:46;76448.03;;;-145.10;100.00
56334;BME280;42240;53.626;55.886;2023-02-21T03:50:24;76450.03;;;-145.10;100.00
56334;BME280;42240;53.626;55.886;2023-02-21T03:51:57;76580.53;;;-145.10;100.00
56334;BME280;42240;53.626;55.886;2023-02-21T03:53:30;76448.03;;;-145.10;100.00
56334;BME280;42240;53.626;55.886;2023-02-21T03:55:06;76432.22;;;-145.10;100.00
56334;BME280;42240;53.626;55.886;2023-02-21T03:56:40;76497.47;;;-145.10;100.00
56334;BME280;42240;53.626;55.886;2023-02-21T03:58:27;76394.66;;;-145.10;100.00
56334;BME280;42240;53.626;55.886;2023-02-21T04:00:00;76426.28;;;-145.10;100.00
56334;BME280;42240;53.626;55.886;2023-02-21T04:01:35;76422.34;;;-145.10;100.00
56334;BME280;42240;53.626;55.886;2023-02-21T04:03:08;76426.28;;;-145.10;100.00
56334;BME280;42240;53.626;55.886;2023-02-21T04:04:52;76414.44;;;-145.10;100.00
56334;BME280;42240;53.626;55.886;2023-02-21T04:06:27;76414.44;;;-145.10;100.00
56334;BME280;42240;53.626;55.886;2023-02-21T04:08:02;76394.66;;;-145.10;100.00
56334;BME280;42240;53.626;55.886;2023-02-21T04:09:36;76404.53;;;-145.10;100.00
56334;BME280;42240;53.626;55.886;2023-02-21T04:11:12;76394.66;;;-145.10;100.00
56334;BME280;42240;53.626;55.886;2023-02-21T04:12:48;76376.88;;;-145.10;100.00
56334;BME280;42240;53.626;55.886;2023-02-21T04:14:21;76386.75;;;-145.10;100.00
56334;BME280;42240;53.626;55.886;2023-02-21T04:15:54;76390.69;;;-145.10;100.00
56334;BME280;42240;53.626;55.886;2023-02-21T04:17:28;76374.88;;;-145.10;100.00
56334;BME280;42240;53.626;55.886;2023-02-21T04:19:03;76372.91;;;-145.10;100.00
56334;BME280;42240;53.626;55.886;2023-02-21T04:20:36;76368.94;;;-145.10;100.00
56334;BME280;42240;53.626;55.886;2023-02-21T04:22:12;76363.03;;;-145.10;100.00
56334;BME280;42240;53.626;55.886;2023-02-21T04:23:46;76363.03;;;-145.10;100.00
56334;BME280;42240;53.626;55.886;2023-02-21T04:25:19;76365.00;;;-145.10;100.00
56334;BME280;42240;53.626;55.886;2023-02-21T04:26:59;76337.31;;;-145.10;100.00
56334;BME280;42240;53.626;55.886;2023-02-21T04:28:38;76339.28;;;-145.10;100.00
56334;BME280;42240;53.626;55.886;2023-02-21T04:30:11;76319.53;;;-145.10;100.00
56334;BME280;42240;53.626;55.886;2023-02-21T04:31:44;76307.66;;;-145.10;100.00
56334;BME280;42240;53.626;55.886;2023-02-21T04:33:20;76329.41;;;-145.10;100.00
56334;BME280;42240;53.626;55.886;2023-02-21T04:34:53;76347.19;;;-145.10;100.00
56334;BME280;42240;53.626;55.886;2023-02-21T04:36:26;76317.53;;;-145.10;100.00
56334;BME280;42240;53.626;55.886;2023-02-21T04:38:00;76307.66;;;-145.10;100.00
56334;BME280;42240;53.626;55.886;2023-02-21T04:39:33;76279.97;;;-145.10;100.00
56334;BME280;42240;53.626;55.886;2023-02-21T04:41:06;76303.69;;;-145.10;100.00
56334;BME280;42240;53.626;55.886;2023-02-21T04:42:40;76303.69;;;-145.10;100.00
56334;BME280;42240;53.626;55.886;2023-02-21T04:44:13;76305.69;;;-145.10;100.00
56334;BME280;42240;53.626;55.886;2023-02-21T04:45:49;76303.69;;;-145.10;100.00
56334;BME280;42240;53.626;55.886;2023-02-21T04:47:22;76327.44;;;-145.10;100.00
56334;BME280;42240;53.626;55.886;2023-02-21T04:48:55;76272.06;;;-145.10;100.00
56334;BME280;42240;53.626;55.886;2023-02-21T04:50:28;76295.78;;;-145.10;100.00
56334;BME280;42240;53.626;55.886;2023-02-21T04:52:01;76295.78;;;-145.10;100.00
56334;BME280;42240;53.626;55.886;2023-02-21T04:53:34;76272.06;;;-145.10;100.00
56334;BME280;42240;53.626;55.886;2023-02-21T04:55:08;76238.47;;;-145.10;100.00
56334;BME280;42240;53.626;55.886;2023-02-21T04:56:41;76248.34;;;-145.10;100.00
56334;BME280;42240;53.626;55.886;2023-02-21T04:58:14;76202.88;;;-145.10;100.00
56334;BME280;42240;53.626;55.886;2023-02-21T04:59:47;76228.56;;;-145.10;100.00
56334;BME280;42240;53.626;55.886;2023-02-21T05:01:21;76224.63;;;-145.10;100.00
56334;BME280;42240;53.626;55.886;2023-02-21T05:02:54;76220.66;;;-145.10;100.00
56334;BME280;42240;53.626;55.886;2023-02-21T05:04:27;76212.75;;;-145.10;100.00
56334;BME280;42240;53.626;55.886;2023-02-21T05:06:00;76212.75;;;-145.10;100.00
56334;BME280;42240;53.626;55.886;2023-02-21T05:07:33;76212.75;;;-145.10;100.00
56334;BME280;42240;53.626;55.886;2023-02-21T05:09:06;76196.94;;;-145.10;100.00
56334;BME280;42240;53.626;55.886;2023-02-21T05:10:39;76177.16;;;-145.10;100.00
56334;BME280;42240;53.626;55.886;2023-02-21T05:12:17;76181.13;;;-145.10;100.00
56334;BME280;42240;53.626;55.886;2023-02-21T05:13:50;76171.22;;;-145.10;100.00
56334;BME280;42240;53.626;55.886;2023-02-21T05:15:23;76173.22;;;-145.10;100.00
56334;BME280;42240;53.626;55.886;2023-02-21T05:16:57;76177.16;;;-145.10;100.00
56334;BME280;42240;53.626;55.886;2023-02-21T05:18:29;76165.31;;;-145.10;100.00
56334;BME280;42240;53.626;55.886;2023-02-21T05:20:03;76157.38;;;-145.10;100.00
56334;BME280;42240;53.626;55.886;2023-02-21T05:21:43;76149.47;;;-145.10;100.00
56334;BME280;42240;53.626;55.886;2023-02-21T05:23:17;76125.75;;;-145.10;100.00
56334;BME280;42240;53.626;55.886;2023-02-21T05:25:07;76117.84;;;-145.10;100.00
56334;BME280;42240;53.626;55.886;2023-02-21T05:26:45;76127.72;;;-145.10;100.00
56334;BME280;42240;53.626;55.886;2023-02-21T05:28:19;76102.03;;;-145.10;100.00
56334;BME280;42240;53.626;55.886;2023-02-21T05:29:52;76117.84;;;-145.10;100.00
56334;BME280;42240;53.626;55.886;2023-02-21T05:31:26;76098.06;;;-145.10;100.00
56334;BME280;42240;53.626;55.886;2023-02-21T05:32:59;76074.34;;;-145.10;100.00
56334;BME280;42240;53.626;55.886;2023-02-21T05:34:32;76086.22;;;-145.10;100.00
56334;BME280;42240;53.626;55.886;2023-02-21T05:36:06;76086.22;;;-145.10;100.00
56334;BME280;42240;53.626;55.886;2023-02-21T05:37:39;76066.44;;;-145.10;100.00
56334;BME280;42240;53.626;55.886;2023-02-21T05:39:12;76074.34;;;-145.10;100.00
56334;BME280;42240;53.626;55.886;2023-02-21T05:40:46;76125.75;;;-145.10;100.00
56334;BME280;42240;53.626;55.886;2023-02-21T05:42:19;76070.41;;;-145.10;100.00
56334;BME280;42240;53.626;55.886;2023-02-21T05:43:52;76054.56;;;-145.10;100.00
56334;BME280;42240;53.626;55.886;2023-02-21T05:45:25;76048.66;;;-145.10;100.00
56334;BME280;42240;53.626;55.886;2023-02-21T05:46:59;76046.66;;;-145.10;100.00
56334;BME280;42240;53.626;55.886;2023-02-21T05:48:33;76036.78;;;-145.10;100.00
56334;BME280;42240;53.626;55.886;2023-02-21T05:50:07;76028.88;;;-145.10;100.00
56334;BME280;42240;53.626;55.886;2023-02-21T05:51:42;76028.88;;;-145.10;100.00
56334;BME280;42240;53.626;55.886;2023-02-21T05:53:15;76040.75;;;-145.10;100.00
56334;BME280;42240;53.626;55.886;2023-02-21T05:54:48;76009.09;;;-145.10;100.00
56334;BME280;42240;53.626;55.886;2023-02-21T05:56:21;76013.06;;;-145.10;100.00
56334;BME280;42240;53.626;55.886;2023-02-21T05:57:54;75999.22;;;-145.10;100.00
56334;BME280;42240;53.626;55.886;2023-02-21T05:59:27;75979.44;;;-145.10;100.00
56334;BME280;42240;53.626;55.886;2023-02-21T06:01:00;76015.03;;;-145.10;100.00
56334;BME280;42240;53.626;55.886;2023-02-21T06:02:33;76009.09;;;-145.10;100.00
56334;BME280;42240;53.626;55.886;2023-02-21T06:04:07;76001.19;;;-145.10;100.00
56334;BME280;42240;53.626;55.886;2023-02-21T06:05:40;76015.03;;;-145.10;100.00
56334;BME280;42240;53.626;55.886;2023-02-21T06:07:13;76026.91;;;-145.10;100.00
56334;BME280;42240;53.626;55.886;2023-02-21T06:08:47;75965.59;;;-145.10;100.00
56334;BME280;42240;53.626;55.886;2023-02-21T06:10:21;75975.50;;;-145.10;100.00
56334;BME280;42240;53.626;55.886;2023-02-21T06:11:55;75965.59;;;-145.10;100.00
56334;BME280;42240;53.626;55.886;2023-02-21T06:13:28;75947.81;;;-145.10;100.00
56334;BME280;42240;53.626;55.886;2023-02-21T06:15:04;75937.94;;;-145.10;100.00
56334;BME280;42240;53.626;55.886;2023-02-21T06:16:39;75971.53;;;-145.10;100.00
56334;BME280;42240;53.626;55.886;2023-02-21T06:18:13;75933.97;;;-145.10;100.00
56334;BME280;42240;53.626;55.886;2023-02-21T06:19:47;75920.13;;;-145.10;100.00
56334;BME280;42240;53.626;55.886;2023-02-21T06:21:20;75920.13;;;-145.10;100.00
56334;BME280;42240;53.626;55.886;2023-02-21T06:22:53;75924.09;;;-145.10;100.00
56334;BME280;42240;53.626;55.886;2023-02-21T06:24:26;75900.38;;;-145.10;100.00
56334;BME280;42240;53.626;55.886;2023-02-21T06:25:59;75912.22;;;-145.10;100.00
56334;BME280;42240;53.626;55.886;2023-02-21T06:27:32;75912.22;;;-145.10;100.00
56334;BME280;42240;53.626;55.886;2023-02-21T06:29:05;75900.38;;;-145.10;100.00
56334;BME280;42240;53.626;55.886;2023-02-21T06:30:38;75918.16;;;-145.10;100.00
56334;BME280;42240;53.626;55.886;2023-02-21T06:32:12;75902.34;;;-145.10;100.00
56334;BME280;42240;53.626;55.886;2023-02-21T06:33:46;75900.38;;;-145.10;100.00
56334;BME280;42240;53.626;55.886;2023-02-21T06:35:19;75973.50;;;-145.10;100.00
56334;BME280;42240;53.626;55.886;2023-02-21T06:36:53;75898.38;;;-145.10;100.00
56334;BME280;42240;53.626;55.886;2023-02-21T06:38:27;75977.47;;;-145.10;100.00
56334;BME280;42240;53.626;55.886;2023-02-21T06:40:00;75890.47;;;-145.10;100.00
56334;BME280;42240;53.626;55.886;2023-02-21T06:41:33;75874.66;;;-145.10;100.00
56334;BME280;42240;53.626;55.886;2023-02-21T06:43:06;75845.00;;;-145.10;100.00
56334;BME280;42240;53.626;55.886;2023-02-21T06:44:42;75890.47;;;-145.10;100.00
56334;BME280;42240;53.626;55.886;2023-02-21T06:46:18;75860.81;;;-145.10;100.00
56334;BME280;42240;53.626;55.886;2023-02-21T06:47:51;75839.06;;;-145.10;100.00
56334;BME280;42240;53.626;55.886;2023-02-21T06:49:25;75837.09;;;-145.10;100.00
56334;BME280;42240;53.626;55.886;2023-02-21T06:50:58;75819.31;;;-145.10;100.00
56334;BME280;42240;53.626;55.886;2023-02-21T06:52:31;75848.97;;;-145.10;100.00
56334;BME280;42240;53.626;55.886;2023-02-21T06:54:04;75837.09;;;-145.10;100.00
56334;BME280;42240;53.626;55.886;2023-02-21T06:55:37;75833.16;;;-145.10;100.00
56334;BME280;42240;53.626;55.886;2023-02-21T06:57:10;75874.66;;;-145.10;100.00
56334;BME280;42240;53.626;55.886;2023-02-21T06:58:43;75852.91;;;-145.10;100.00
56334;BME280;42240;53.626;55.886;2023-02-21T07:00:16;75860.81;;;-145.10;100.00
56334;BME280;42240;53.626;55.886;2023-02-21T07:01:49;75821.28;;;-145.10;100.00
56334;BME280;42240;53.626;55.886;2023-02-21T07:03:22;75918.16;;;-145.10;100.00
56334;BME280;42240;53.626;55.886;2023-02-21T07:04:55;75833.16;;;-145.10;100.00
56334;BME280;42240;53.626;55.886;2023-02-21T07:06:29;75817.31;;;-145.10;100.00
56334;BME280;42240;53.626;55.886;2023-02-21T07:08:03;75821.28;;;-145.10;100.00
56334;BME280;42240;53.626;55.886;2023-02-21T07:09:36;75894.44;;;-145.10;100.00
56334;BME280;42240;53.626;55.886;2023-02-21T07:11:09;75825.25;;;-145.10;100.00
56334;BME280;42240;53.626;55.886;2023-02-21T07:12:43;75833.16;;;-145.10;100.00
56334;BME280;42240;53.626;55.886;2023-02-21T07:14:16;75801.50;;;-145.10;100.00
56334;BME280;42240;53.626;55.886;2023-02-21T07:15:49;75781.75;;;-145.10;100.00
56334;BME280;42240;53.626;55.886;2023-02-21T07:17:21;75801.50;;;-145.10;100.00
56334;BME280;42240;53.626;55.886;2023-02-21T07:18:54;75801.50;;;-145.10;100.00
56334;BME280;42240;53.626;55.886;2023-02-21T07:20:27;75781.75;;;-145.10;100.00
56334;BME280;42240;53.626;55.886;2023-02-21T07:22:00;75805.47;;;-145.10;100.00
56334;BME280;42240;53.626;55.886;2023-02-21T07:23:33;75789.66;;;-145.10;100.00
56334;BME280;42240;53.626;55.886;2023-02-21T07:25:06;75760.00;;;-145.10;100.00
56334;BME280;42240;53.626;55.886;2023-02-21T07:26:39;75813.38;;;-145.10;100.00
56334;BME280;42240;53.626;55.886;2023-02-21T07:28:13;75769.88;;;-145.10;100.00
56334;BME280;42240;53.626;55.886;2023-02-21T07:29:47;75777.78;;;-145.10;100.00
56334;BME280;42240;53.626;55.886;2023-02-21T07:31:20;75738.25;;;-145.10;100.00
56334;BME280;42240;53.626;55.886;2023-02-21T07:32:53;75738.25;;;-145.10;100.00
56334;BME280;42240;53.626;55.886;2023-02-21T07:34:25;75787.69;;;-145.10;100.00
56334;BME280;42240;53.626;55.886;2023-02-21T07:35:58;75801.50;;;-145.10;100.00
56334;BME280;42240;53.626;55.886;2023-02-21T07:37:31;75785.69;;;-145.10;100.00
56334;BME280;42240;53.626;55.886;2023-02-21T07:39:04;75797.56;;;-145.10;100.00
56334;BME280;42240;53.626;55.886;2023-02-21T07:40:36;75789.66;;;-145.10;100.00
56334;BME280;42240;53.626;55.886;2023-02-21T07:42:09;75726.38;;;-145.10;100.00
56334;BME280;42240;53.626;55.886;2023-02-21T07:43:49;75763.94;;;-145.10;100.00
56334;BME280;42240;53.626;55.886;2023-02-21T07:45:22;75781.75;;;-145.10;100.00
56334;BME280;42240;53.626;55.886;2023-02-21T07:46:56;75775.81;;;-145.10;100.00
56334;BME280;42240;53.626;55.886;2023-02-21T07:48:29;75736.28;;;-145.10;100.00
56334;BME280;42240;53.626;55.886;2023-02-21T07:50:03;75748.13;;;-145.10;100.00
56334;BME280;42240;53.626;55.886;2023-02-21T07:51:36;75746.16;;;-145.10;100.00
56334;BME280;42240;53.626;55.886;2023-02-21T07:53:10;75750.13;;;-145.10;100.00
56334;BME280;42240;53.626;55.886;2023-02-21T07:54:44;75730.34;;;-145.10;100.00
56334;BME280;42240;53.626;55.886;2023-02-21T07:56:18;75754.06;;;-145.10;100.00
56334;BME280;42240;53.626;55.886;2023-02-21T07:57:52;75734.28;;;-145.10;100.00
56334;BME280;42240;53.626;55.886;2023-02-21T07:59:25;75791.63;;;-145.10;100.00
56334;BME280;42240;53.626;55.886;2023-02-21T08:00:58;75710.56;;;-145.10;100.00
56334;BME280;42240;53.626;55.886;2023-02-21T08:02:30;75684.88;;;-145.10;100.00
56334;BME280;42240;53.626;55.886;2023-02-21T08:04:04;75744.19;;;-145.10;100.00
56334;BME280;42240;53.626;55.886;2023-02-21T08:05:37;75734.28;;;-145.10;100.00
56334;BME280;42240;53.626;55.886;2023-02-21T08:07:10;75710.56;;;-145.10;100.00
56334;BME280;42240;53.626;55.886;2023-02-21T08:08:44;75716.50;;;-145.10;100.00
56334;BME280;42240;53.626;55.886;2023-02-21T08:10:23;75663.13;;;-145.10;100.00
56334;BME280;42240;53.626;55.886;2023-02-21T08:11:57;75667.06;;;-145.10;100.00
56334;BME280;42240;53.626;55.886;2023-02-21T08:13:30;75663.13;;;-145.10;100.00
56334;BME280;42240;53.626;55.886;2023-02-21T08:15:03;75665.09;;;-145.10;100.00
56334;BME280;42240;53.626;55.886;2023-02-21T08:16:37;75663.13;;;-145.10;100.00
56334;BME280;42240;53.626;55.886;2023-02-21T08:18:19;75651.25;;;-145.10;100.00
56334;BME280;42240;53.626;55.886;2023-02-21T08:19:55;75655.22;;;-145.10;100.00
56334;BME280;42240;53.626;55.886;2023-02-21T08:21:28;75643.34;;;-145.10;100.00
56334;BME280;42240;53.626;55.886;2023-02-21T08:23:02;75588.00;;;-145.10;100.00
56334;BME280;42240;53.626;55.886;2023-02-21T08:24:35;75578.13;;;-145.10;100.00
56334;BME280;42240;53.626;55.886;2023-02-21T08:26:07;75552.41;;;-145.10;100.00
56334;BME280;42240;53.626;55.886;2023-02-21T08:27:41;75591.97;;;-145.10;100.00
56334;BME280;42240;53.626;55.886;2023-02-21T08:29:15;75576.13;;;-145.10;100.00
56334;BME280;42240;53.626;55.886;2023-02-21T08:30:49;75588.00;;;-145.10;100.00
56334;BME280;42240;53.626;55.886;2023-02-21T08:32:22;75572.19;;;-145.10;100.00
56334;BME280;42240;53.626;55.886;2023-02-21T08:33:55;75540.56;;;-145.10;100.00
56334;BME280;42240;53.626;55.886;2023-02-21T08:35:28;75544.50;;;-145.10;100.00
56334;BME280;42240;53.626;55.886;2023-02-21T08:37:01;75564.28;;;-145.10;100.00
56334;BME280;42240;53.626;55.886;2023-02-21T08:38:38;75674.97;;;-145.10;100.00
56334;BME280;42240;53.626;55.886;2023-02-21T08:40:12;75580.09;;;-145.10;100.00
56334;BME280;42240;53.626;55.886;2023-02-21T08:41:46;75570.22;;;-145.10;100.00
56334;BME280;42240;53.626;55.886;2023-02-21T08:43:24;75595.91;;;-145.10;100.00
56334;BME280;42240;53.626;55.886;2023-02-21T08:44:57;75580.09;;;-145.10;100.00
56334;BME280;42240;53.626;55.886;2023-02-21T08:46:30;75580.09;;;-145.10;100.00
56334;BME280;42240;53.626;55.886;2023-02-21T08:48:03;75564.28;;;-145.10;100.00
56334;BME280;42240;53.626;55.886;2023-02-21T08:49:36;75508.94;;;-145.10;100.00
56334;BME280;42240;53.626;55.886;2023-02-21T08:51:13;75489.16;;;-145.10;100.00
56334;BME280;42240;53.626;55.886;2023-02-21T08:52:48;75520.78;;;-145.10;100.00
56334;BME280;42240;53.626;55.886;2023-02-21T08:54:21;75495.09;;;-145.10;100.00
56334;BME280;42240;53.626;55.886;2023-02-21T08:55:54;75475.31;;;-145.10;100.00
56334;BME280;42240;53.626;55.886;2023-02-21T08:57:28;75453.56;;;-145.10;100.00
56334;BME280;42240;53.626;55.886;2023-02-21T08:59:02;75485.19;;;-145.10;100.00